^^
Station Historical Data
Daily Summary for March 1, 2018 Units:  Both    English   Metric
« Previous Day
Next Day »
Daily Weekly Monthly Yearly Custom
  High: Low: Average:
Temperature: TemperatureF °F /  -17.8 °C 64.8 °F /  18.2 °C 76.9 °F /  24.9 °C
Dew Point: DewpointF °F /  -17.8 °C 41.5 °F /  5.3 °C 46 °F /  7.8 °C
Humidity: Humidity% 26% 33%
Wind Speed: WindSpeedMPHmph /  0km/h - -12.4mph /  -20km/h
Wind Gust: WindSpeedGustMPHmph /  0km/h - -
Wind- -
Pressure: PressureIn in /  0 hPa 29.56 in /  1000.9 hPa -
Precipitation: 0.00 in /  0 mm    
Historical Graphs
 
 
Tabular Data for March 1, 2018
Time Temperature Dew Point Pressure Wind Wind Speed Wind Gust Humidity Rainfall Rate (Hourly) solar Conditions
TemperatureF °F /  -17.8 °C DewpointF °F /  -17.8 °C PressureInin /  0hPa Calm     Humidity% HourlyPrecipInin /  0mm SoftwareType W/m2 Conditions
07:55 64.8 °F /  18.2 °C 41.7 °F /  5.4 °C 29.71in /  1006hPa North -999.9mph /  -1609.1km/h -999.0mph /  -1607.7km/h 43% 0.00in /  0mm meteobridge W/m2
08:02 65.1 °F /  18.4 °C 41.5 °F /  5.3 °C 29.72in /  1006.3hPa ENE 8.9mph /  14.3km/h 12.0mph /  19.3km/h 42% 0.00in /  0mm meteobridge W/m2
08:08 65.5 °F /  18.6 °C 42.4 °F /  5.8 °C 29.72in /  1006.3hPa ENE 8.9mph /  14.3km/h 13.0mph /  20.9km/h 43% 0.00in /  0mm meteobridge W/m2
08:14 65.8 °F /  18.8 °C 42.1 °F /  5.6 °C 29.72in /  1006.3hPa NE 6.9mph /  11.1km/h 11.0mph /  17.7km/h 42% 0.00in /  0mm meteobridge W/m2
08:20 66.2 °F /  19 °C 43.0 °F /  6.1 °C 29.73in /  1006.7hPa ENE 13.0mph /  20.9km/h 13.0mph /  20.9km/h 43% 0.00in /  0mm meteobridge W/m2
08:26 66.4 °F /  19.1 °C 42.6 °F /  5.9 °C 29.74in /  1007hPa ESE 4.9mph /  7.9km/h 14.0mph /  22.5km/h 42% 0.00in /  0mm meteobridge W/m2
08:32 66.9 °F /  19.4 °C 43.7 °F /  6.5 °C 29.73in /  1006.7hPa ENE 10.1mph /  16.3km/h 12.0mph /  19.3km/h 43% 0.00in /  0mm meteobridge W/m2
08:38 67.5 °F /  19.7 °C 43.5 °F /  6.4 °C 29.73in /  1006.7hPa East 2.0mph /  3.2km/h 12.0mph /  19.3km/h 42% 0.00in /  0mm meteobridge W/m2
08:46 68.4 °F /  20.2 °C 44.4 °F /  6.9 °C 29.74in /  1007hPa East 4.0mph /  6.4km/h 12.0mph /  19.3km/h 42% 0.00in /  0mm meteobridge W/m2
08:52 68.9 °F /  20.5 °C 44.8 °F /  7.1 °C 29.74in /  1007hPa East 6.9mph /  11.1km/h 11.0mph /  17.7km/h 42% 0.00in /  0mm meteobridge W/m2
08:58 69.3 °F /  20.7 °C 44.6 °F /  7 °C 29.74in /  1007hPa SE 4.0mph /  6.4km/h 10.0mph /  16.1km/h 41% 0.00in /  0mm meteobridge W/m2
09:05 69.3 °F /  20.7 °C 45.1 °F /  7.3 °C 29.74in /  1007hPa ESE 0.9mph /  1.4km/h 6.0mph /  9.7km/h 42% 0.00in /  0mm meteobridge W/m2
09:11 69.8 °F /  21 °C 45.0 °F /  7.2 °C 29.74in /  1007hPa Calm   6.0mph /  9.7km/h 41% 0.00in /  0mm meteobridge W/m2
09:17 70.2 °F /  21.2 °C 45.3 °F /  7.4 °C 29.74in /  1007hPa North 8.1mph /  13km/h 11.0mph /  17.7km/h 41% 0.00in /  0mm meteobridge W/m2
09:23 70.0 °F /  21.1 °C 45.1 °F /  7.3 °C 29.74in /  1007hPa NNE 4.0mph /  6.4km/h 7.0mph /  11.3km/h 41% 0.00in /  0mm meteobridge W/m2
09:29 70.9 °F /  21.6 °C 46.6 °F /  8.1 °C 29.74in /  1007hPa NNE 6.9mph /  11.1km/h 10.0mph /  16.1km/h 42% 0.00in /  0mm meteobridge W/m2
09:35 71.2 °F /  21.8 °C 46.4 °F /  8 °C 29.74in /  1007hPa NNE 2.0mph /  3.2km/h 8.0mph /  12.9km/h 41% 0.00in /  0mm meteobridge W/m2
09:41 72.3 °F /  22.4 °C 46.6 °F /  8.1 °C 29.74in /  1007hPa North 4.9mph /  7.9km/h 5.0mph /  8km/h 40% 0.00in /  0mm meteobridge W/m2
09:47 73.8 °F /  23.2 °C 47.3 °F /  8.5 °C 29.74in /  1007hPa North 2.9mph /  4.7km/h 4.0mph /  6.4km/h 39% 0.00in /  0mm meteobridge W/m2
09:54 74.1 °F /  23.4 °C 46.9 °F /  8.3 °C 29.74in /  1007hPa North 0.9mph /  1.4km/h 7.0mph /  11.3km/h 38% 0.00in /  0mm meteobridge W/m2
10:00 73.9 °F /  23.3 °C 46.8 °F /  8.2 °C 29.74in /  1007hPa North 2.0mph /  3.2km/h 3.0mph /  4.8km/h 38% 0.00in /  0mm meteobridge W/m2
10:06 74.1 °F /  23.4 °C 47.7 °F /  8.7 °C 29.73in /  1006.7hPa North 10.1mph /  16.3km/h 10.1mph /  16.3km/h 39% 0.00in /  0mm meteobridge W/m2
10:12 74.1 °F /  23.4 °C 46.9 °F /  8.3 °C 29.74in /  1007hPa NE 6.0mph /  9.7km/h 11.0mph /  17.7km/h 38% 0.00in /  0mm meteobridge W/m2
10:18 73.8 °F /  23.2 °C 47.3 °F /  8.5 °C 29.73in /  1006.7hPa NNE 4.0mph /  6.4km/h 10.0mph /  16.1km/h 39% 0.00in /  0mm meteobridge W/m2
10:24 74.1 °F /  23.4 °C 48.2 °F /  9 °C 29.73in /  1006.7hPa North 6.9mph /  11.1km/h 10.0mph /  16.1km/h 40% 0.00in /  0mm meteobridge W/m2
10:30 73.9 °F /  23.3 °C 48.0 °F /  8.9 °C 29.73in /  1006.7hPa North 2.0mph /  3.2km/h 10.0mph /  16.1km/h 40% 0.00in /  0mm meteobridge W/m2
10:34 74.7 °F /  23.7 °C 48.0 °F /  8.9 °C 29.73in /  1006.7hPa NNW 4.9mph /  7.9km/h 12.0mph /  19.3km/h 39% 0.00in /  0mm meteobridge W/m2
10:40 74.7 °F /  23.7 °C 49.5 °F /  9.7 °C 29.74in /  1007hPa NE 4.0mph /  6.4km/h 12.0mph /  19.3km/h 41% 0.00in /  0mm meteobridge W/m2
10:47 75.2 °F /  24 °C 49.3 °F /  9.6 °C 29.73in /  1006.7hPa NNE 2.0mph /  3.2km/h 5.0mph /  8km/h 40% 0.00in /  0mm meteobridge W/m2
10:53 75.6 °F /  24.2 °C 48.9 °F /  9.4 °C 29.73in /  1006.7hPa ENE 2.9mph /  4.7km/h 10.0mph /  16.1km/h 39% 0.00in /  0mm meteobridge W/m2
10:59 75.9 °F /  24.4 °C 48.6 °F /  9.2 °C 29.73in /  1006.7hPa NE 4.0mph /  6.4km/h 8.0mph /  12.9km/h 38% 0.00in /  0mm meteobridge W/m2
11:05 76.3 °F /  24.6 °C 48.7 °F /  9.3 °C 29.73in /  1006.7hPa North 2.9mph /  4.7km/h 7.0mph /  11.3km/h 38% 0.00in /  0mm meteobridge W/m2
11:11 76.5 °F /  24.7 °C 48.9 °F /  9.4 °C 29.73in /  1006.7hPa NW 8.9mph /  14.3km/h 9.0mph /  14.5km/h 38% 0.00in /  0mm meteobridge W/m2
11:17 77.2 °F /  25.1 °C 48.9 °F /  9.4 °C 29.73in /  1006.7hPa NNW 8.1mph /  13km/h 8.1mph /  13km/h 37% 0.00in /  0mm meteobridge W/m2
11:23 76.6 °F /  24.8 °C 48.4 °F /  9.1 °C 29.72in /  1006.3hPa SE 4.9mph /  7.9km/h 7.0mph /  11.3km/h 37% 0.00in /  0mm meteobridge W/m2
11:30 77.4 °F /  25.2 °C 49.1 °F /  9.5 °C 29.72in /  1006.3hPa ESE 2.9mph /  4.7km/h 4.0mph /  6.4km/h 37% 0.00in /  0mm meteobridge W/m2
11:36 77.0 °F /  25 °C 49.5 °F /  9.7 °C 29.72in /  1006.3hPa NNW 15.0mph /  24.1km/h 15.0mph /  24.1km/h 38% 0.00in /  0mm meteobridge W/m2
11:42 76.8 °F /  24.9 °C 48.6 °F /  9.2 °C 29.72in /  1006.3hPa NNW 6.0mph /  9.7km/h 18.0mph /  29km/h 37% 0.00in /  0mm meteobridge W/m2
11:48 76.8 °F /  24.9 °C 47.8 °F /  8.8 °C 29.72in /  1006.3hPa NNE 4.0mph /  6.4km/h 8.0mph /  12.9km/h 36% 0.00in /  0mm meteobridge W/m2
11:54 77.7 °F /  25.4 °C 47.8 °F /  8.8 °C 29.72in /  1006.3hPa NNE 12.1mph /  19.5km/h 18.0mph /  29km/h 35% 0.00in /  0mm meteobridge W/m2
12:00 78.3 °F /  25.7 °C 48.4 °F /  9.1 °C 29.72in /  1006.3hPa NNW 4.9mph /  7.9km/h 7.0mph /  11.3km/h 35% 0.00in /  0mm meteobridge W/m2
12:06 78.3 °F /  25.7 °C 47.7 °F /  8.7 °C 29.72in /  1006.3hPa North 6.9mph /  11.1km/h 15.0mph /  24.1km/h 34% 0.00in /  0mm meteobridge W/m2
12:12 78.3 °F /  25.7 °C 49.1 °F /  9.5 °C 29.72in /  1006.3hPa NNE 2.9mph /  4.7km/h 4.0mph /  6.4km/h 36% 0.00in /  0mm meteobridge W/m2
12:18 79.2 °F /  26.2 °C 49.8 °F /  9.9 °C 29.72in /  1006.3hPa North 16.1mph /  25.9km/h 17.0mph /  27.4km/h 36% 0.00in /  0mm meteobridge W/m2
12:24 78.6 °F /  25.9 °C 48.7 °F /  9.3 °C 29.71in /  1006hPa NNW 6.9mph /  11.1km/h 8.0mph /  12.9km/h 35% 0.00in /  0mm meteobridge W/m2
12:30 79.0 °F /  26.1 °C 48.2 °F /  9 °C 29.70in /  1005.6hPa North 4.9mph /  7.9km/h 5.0mph /  8km/h 34% 0.00in /  0mm meteobridge W/m2
12:36 79.9 °F /  26.6 °C 48.9 °F /  9.4 °C 29.70in /  1005.6hPa North 14.1mph /  22.7km/h 14.1mph /  22.7km/h 34% 0.00in /  0mm meteobridge W/m2
12:42 80.1 °F /  26.7 °C 48.4 °F /  9.1 °C 29.70in /  1005.6hPa North 8.9mph /  14.3km/h 17.0mph /  27.4km/h 33% 0.00in /  0mm meteobridge W/m2
12:48 79.5 °F /  26.4 °C 48.7 °F /  9.3 °C 29.69in /  1005.3hPa North 10.1mph /  16.3km/h 14.0mph /  22.5km/h 34% 0.00in /  0mm meteobridge W/m2
12:54 79.5 °F /  26.4 °C 46.2 °F /  7.9 °C 29.70in /  1005.6hPa NNE 11.0mph /  17.7km/h 16.0mph /  25.7km/h 31% 0.00in /  0mm meteobridge W/m2
12:59 80.1 °F /  26.7 °C 47.5 °F /  8.6 °C 29.70in /  1005.6hPa North 15.0mph /  24.1km/h 18.0mph /  29km/h 32% 0.00in /  0mm meteobridge W/m2
13:05 80.4 °F /  26.9 °C 46.9 °F /  8.3 °C 29.69in /  1005.3hPa West 6.0mph /  9.7km/h 9.0mph /  14.5km/h 31% 0.00in /  0mm meteobridge W/m2
13:11 80.4 °F /  26.9 °C 46.9 °F /  8.3 °C 29.68in /  1005hPa Calm   2.0mph /  3.2km/h 31% 0.00in /  0mm meteobridge W/m2
13:17 81.3 °F /  27.4 °C 46.9 °F /  8.3 °C 29.68in /  1005hPa NNW 2.9mph /  4.7km/h 6.0mph /  9.7km/h 30% 0.00in /  0mm meteobridge W/m2
13:23 81.1 °F /  27.3 °C 46.8 °F /  8.2 °C 29.68in /  1005hPa NW 10.1mph /  16.3km/h 16.0mph /  25.7km/h 30% 0.00in /  0mm meteobridge W/m2
13:29 81.1 °F /  27.3 °C 47.7 °F /  8.7 °C 29.68in /  1005hPa WNW 2.9mph /  4.7km/h 6.0mph /  9.7km/h 31% 0.00in /  0mm meteobridge W/m2
13:35 81.5 °F /  27.5 °C 47.1 °F /  8.4 °C 29.67in /  1004.6hPa North 11.0mph /  17.7km/h 17.0mph /  27.4km/h 30% 0.00in /  0mm meteobridge W/m2
13:41 81.9 °F /  27.7 °C 47.3 °F /  8.5 °C 29.68in /  1005hPa North 2.0mph /  3.2km/h 15.0mph /  24.1km/h 30% 0.00in /  0mm meteobridge W/m2
13:47 82.6 °F /  28.1 °C 47.1 °F /  8.4 °C 29.67in /  1004.6hPa North 12.1mph /  19.5km/h 15.0mph /  24.1km/h 29% 0.00in /  0mm meteobridge W/m2
13:50 82.0 °F /  27.8 °C 47.5 °F /  8.6 °C 29.67in /  1004.6hPa North 14.1mph /  22.7km/h 19.0mph /  30.6km/h 30% 0.00in /  0mm meteobridge W/m2
13:56 80.6 °F /  27 °C 46.2 °F /  7.9 °C 29.67in /  1004.6hPa West 2.9mph /  4.7km/h 8.0mph /  12.9km/h 30% 0.00in /  0mm meteobridge W/m2
14:02 81.7 °F /  27.6 °C 47.3 °F /  8.5 °C 29.67in /  1004.6hPa North 12.1mph /  19.5km/h 12.1mph /  19.5km/h 30% 0.00in /  0mm meteobridge W/m2
14:08 82.0 °F /  27.8 °C 46.6 °F /  8.1 °C 29.66in /  1004.3hPa NNW 10.1mph /  16.3km/h 19.0mph /  30.6km/h 29% 0.00in /  0mm meteobridge W/m2
14:14 82.0 °F /  27.8 °C 46.6 °F /  8.1 °C 29.66in /  1004.3hPa WSW 2.9mph /  4.7km/h 10.0mph /  16.1km/h 29% 0.00in /  0mm meteobridge W/m2
14:20 81.9 °F /  27.7 °C 46.4 °F /  8 °C 29.66in /  1004.3hPa NNE 2.0mph /  3.2km/h 17.0mph /  27.4km/h 29% 0.00in /  0mm meteobridge W/m2
14:27 82.2 °F /  27.9 °C 46.8 °F /  8.2 °C 29.64in /  1003.6hPa NW 2.9mph /  4.7km/h 6.0mph /  9.7km/h 29% 0.00in /  0mm meteobridge W/m2
14:33 82.8 °F /  28.2 °C 46.4 °F /  8 °C 29.64in /  1003.6hPa NNW 10.1mph /  16.3km/h 17.0mph /  27.4km/h 28% 0.00in /  0mm meteobridge W/m2
14:39 81.0 °F /  27.2 °C 45.7 °F /  7.6 °C 29.64in /  1003.6hPa NNW 8.9mph /  14.3km/h 12.0mph /  19.3km/h 29% 0.00in /  0mm meteobridge W/m2
14:45 81.9 °F /  27.7 °C 45.5 °F /  7.5 °C 29.64in /  1003.6hPa North 8.1mph /  13km/h 13.0mph /  20.9km/h 28% 0.00in /  0mm meteobridge W/m2
14:51 83.1 °F /  28.4 °C 45.7 °F /  7.6 °C 29.63in /  1003.3hPa ESE 0.9mph /  1.4km/h 6.0mph /  9.7km/h 27% 0.00in /  0mm meteobridge W/m2
14:57 84.7 °F /  29.3 °C 48.0 °F /  8.9 °C 29.63in /  1003.3hPa South 0.9mph /  1.4km/h 7.0mph /  11.3km/h 28% 0.00in /  0mm meteobridge W/m2
15:03 85.8 °F /  29.9 °C 48.0 °F /  8.9 °C 29.62in /  1002.9hPa NW 6.9mph /  11.1km/h 7.0mph /  11.3km/h 27% 0.00in /  0mm meteobridge W/m2
15:09 84.6 °F /  29.2 °C 46.9 °F /  8.3 °C 29.62in /  1002.9hPa NNW 11.0mph /  17.7km/h 21.0mph /  33.8km/h 27% 0.00in /  0mm meteobridge W/m2
15:15 82.8 °F /  28.2 °C 46.4 °F /  8 °C 29.62in /  1002.9hPa NNW 11.0mph /  17.7km/h 19.0mph /  30.6km/h 28% 0.00in /  0mm meteobridge W/m2
15:21 80.8 °F /  27.1 °C 45.5 °F /  7.5 °C 29.62in /  1002.9hPa NW 6.9mph /  11.1km/h 14.0mph /  22.5km/h 29% 0.00in /  0mm meteobridge W/m2
15:27 80.6 °F /  27 °C 45.3 °F /  7.4 °C 29.61in /  1002.6hPa West 6.9mph /  11.1km/h 10.0mph /  16.1km/h 29% 0.00in /  0mm meteobridge W/m2
15:33 82.2 °F /  27.9 °C 45.9 °F /  7.7 °C 29.61in /  1002.6hPa NNW 2.0mph /  3.2km/h 7.0mph /  11.3km/h 28% 0.00in /  0mm meteobridge W/m2
15:55 83.3 °F /  28.5 °C 44.8 °F /  7.1 °C 29.60in /  1002.3hPa ENE 4.9mph /  7.9km/h 13.0mph /  20.9km/h 26% 0.00in /  0mm meteobridge W/m2
16:01 82.4 °F /  28 °C 45.1 °F /  7.3 °C 29.59in /  1001.9hPa NNW 15.0mph /  24.1km/h 18.0mph /  29km/h 27% 0.00in /  0mm meteobridge W/m2
16:07 81.0 °F /  27.2 °C 44.8 °F /  7.1 °C 29.59in /  1001.9hPa NNW 10.1mph /  16.3km/h 14.0mph /  22.5km/h 28% 0.00in /  0mm meteobridge W/m2
16:14 80.1 °F /  26.7 °C 45.0 °F /  7.2 °C 29.59in /  1001.9hPa NNW 8.1mph /  13km/h 9.0mph /  14.5km/h 29% 0.00in /  0mm meteobridge W/m2
16:20 79.9 °F /  26.6 °C 44.8 °F /  7.1 °C 29.59in /  1001.9hPa WSW 6.0mph /  9.7km/h 6.0mph /  9.7km/h 29% 0.00in /  0mm meteobridge W/m2
16:26 80.2 °F /  26.8 °C 45.1 °F /  7.3 °C 29.59in /  1001.9hPa SW 4.0mph /  6.4km/h 4.0mph /  6.4km/h 29% 0.00in /  0mm meteobridge W/m2
16:32 80.4 °F /  26.9 °C 45.3 °F /  7.4 °C 29.59in /  1001.9hPa SW 4.9mph /  7.9km/h 9.0mph /  14.5km/h 29% 0.00in /  0mm meteobridge W/m2
16:38 80.1 °F /  26.7 °C 45.0 °F /  7.2 °C 29.58in /  1001.6hPa NNW 4.0mph /  6.4km/h 10.0mph /  16.1km/h 29% 0.00in /  0mm meteobridge W/m2
16:44 80.1 °F /  26.7 °C 45.0 °F /  7.2 °C 29.58in /  1001.6hPa NW 2.9mph /  4.7km/h 4.0mph /  6.4km/h 29% 0.00in /  0mm meteobridge W/m2
16:50 82.8 °F /  28.2 °C 47.3 °F /  8.5 °C 29.58in /  1001.6hPa SSW 6.0mph /  9.7km/h 10.0mph /  16.1km/h 29% 0.00in /  0mm meteobridge W/m2
17:09 82.9 °F /  28.3 °C 45.5 °F /  7.5 °C 29.57in /  1001.2hPa SW 6.0mph /  9.7km/h 12.0mph /  19.3km/h 27% 0.00in /  0mm meteobridge W/m2
17:15 82.9 °F /  28.3 °C 45.5 °F /  7.5 °C 29.57in /  1001.2hPa South 6.0mph /  9.7km/h 13.0mph /  20.9km/h 27% 0.00in /  0mm meteobridge W/m2
17:21 82.8 °F /  28.2 °C 45.3 °F /  7.4 °C 29.57in /  1001.2hPa SSE 4.0mph /  6.4km/h 4.0mph /  6.4km/h 27% 0.00in /  0mm meteobridge W/m2
17:27 82.8 °F /  28.2 °C 45.3 °F /  7.4 °C 29.57in /  1001.2hPa South 4.9mph /  7.9km/h 9.0mph /  14.5km/h 27% 0.00in /  0mm meteobridge W/m2
17:33 82.6 °F /  28.1 °C 45.1 °F /  7.3 °C 29.56in /  1000.9hPa SSW 4.9mph /  7.9km/h 10.0mph /  16.1km/h 27% 0.00in /  0mm meteobridge W/m2
17:39 81.1 °F /  27.3 °C 45.0 °F /  7.2 °C 29.57in /  1001.2hPa South 6.9mph /  11.1km/h 16.0mph /  25.7km/h 28% 0.00in /  0mm meteobridge W/m2
17:45 81.3 °F /  27.4 °C 46.0 °F /  7.8 °C 29.57in /  1001.2hPa SSE 2.9mph /  4.7km/h 13.0mph /  20.9km/h 29% 0.00in /  0mm meteobridge W/m2
17:51 80.8 °F /  27.1 °C 44.6 °F /  7 °C 29.57in /  1001.2hPa SW 2.9mph /  4.7km/h 7.0mph /  11.3km/h 28% 0.00in /  0mm meteobridge W/m2
17:57 80.4 °F /  26.9 °C 45.3 °F /  7.4 °C 29.57in /  1001.2hPa South 8.1mph /  13km/h 10.0mph /  16.1km/h 29% 0.00in /  0mm meteobridge W/m2
18:04 80.4 °F /  26.9 °C 45.3 °F /  7.4 °C 29.57in /  1001.2hPa SSE 2.9mph /  4.7km/h 6.0mph /  9.7km/h 29% 0.00in /  0mm meteobridge W/m2
18:10 79.7 °F /  26.5 °C 45.5 °F /  7.5 °C 29.57in /  1001.2hPa South 12.1mph /  19.5km/h 14.0mph /  22.5km/h 30% 0.00in /  0mm meteobridge W/m2
18:16 78.6 °F /  25.9 °C 45.5 °F /  7.5 °C 29.57in /  1001.2hPa SSE 8.1mph /  13km/h 12.0mph /  19.3km/h 31% 0.00in /  0mm meteobridge W/m2
18:22 78.1 °F /  25.6 °C 45.9 °F /  7.7 °C 29.57in /  1001.2hPa SSE 2.9mph /  4.7km/h 11.0mph /  17.7km/h 32% 0.00in /  0mm meteobridge W/m2
18:28 77.7 °F /  25.4 °C 46.4 °F /  8 °C 29.58in /  1001.6hPa South 6.9mph /  11.1km/h 14.0mph /  22.5km/h 33% 0.00in /  0mm meteobridge W/m2
18:34 78.4 °F /  25.8 °C 46.9 °F /  8.3 °C 29.57in /  1001.2hPa SSE 6.9mph /  11.1km/h 11.0mph /  17.7km/h 33% 0.00in /  0mm meteobridge W/m2
18:40 78.6 °F /  25.9 °C 46.2 °F /  7.9 °C 29.57in /  1001.2hPa South 6.0mph /  9.7km/h 13.0mph /  20.9km/h 32% 0.00in /  0mm meteobridge W/m2
18:46 78.4 °F /  25.8 °C 46.2 °F /  7.9 °C 29.57in /  1001.2hPa South 6.0mph /  9.7km/h 13.0mph /  20.9km/h 32% 0.00in /  0mm meteobridge W/m2
18:53 78.1 °F /  25.6 °C 45.9 °F /  7.7 °C 29.57in /  1001.2hPa South 4.0mph /  6.4km/h 4.0mph /  6.4km/h 32% 0.00in /  0mm meteobridge W/m2
18:59 78.1 °F /  25.6 °C 45.9 °F /  7.7 °C 29.57in /  1001.2hPa South 4.0mph /  6.4km/h -999.0mph /  -1607.7km/h 32% 0.00in /  0mm meteobridge W/m2
19:07 78.1 °F /  25.6 °C 45.9 °F /  7.7 °C 29.57in /  1001.2hPa North -999.9mph /  -1609.1km/h -999.0mph /  -1607.7km/h 32% 0.00in /  0mm meteobridge W/m2
Regenstein, Windhoek, Namibia
Compliments of Weather Underground - 2.5 mb